Time;durP1;ratioP1;P1;durP2;ratioP2;P2;SDS_P1;SDS_P2;PMS_P1;PMS_P2;Temp;Humidity;BMP_temperature;BMP_pressure;BME280_temperature;BME280_humidity;BME280_pressure;Samples;Min_cycle;Max_cycle;Signal;HPM_P1;HPM_P2
2021/09/19 00:01:10;;;;;;;;;;;;;;;-144.99;90.16;52456.25;5086360;28;20078;-79
2021/09/19 00:03:37;;;;;;;;;;;;;;;-144.99;89.80;52450.13;5086015;28;19984;-77
2021/09/19 00:06:06;;;;;;;;;;;;;;;-144.99;89.74;52476.63;5074272;28;20423;-78
2021/09/19 00:08:32;;;;;;;;;;;;;;;-144.99;89.95;52517.41;5076070;28;20063;-76
2021/09/19 00:10:59;;;;;;;;;;;;;;;-144.99;89.98;52488.84;5086023;28;20844;-79
2021/09/19 00:13:27;;;;;;;;;;;;;;;-144.99;89.91;52472.56;5087717;28;19987;-75
2021/09/19 00:15:53;;;;;;;;;;;;;;;-144.99;89.72;52464.41;5087355;28;19997;-76
2021/09/19 00:18:20;;;;;;;;;;;;;;;-144.99;89.63;52468.47;5086065;28;20373;-79
2021/09/19 00:20:46;;;;;;;;;;;;;;;-144.99;89.50;52439.94;5098482;22;20051;-74
2021/09/19 00:23:12;;;;;;;;;;;;;;;-144.99;89.36;52444.03;5066701;28;19980;-73
2021/09/19 00:25:39;;;;;;;;;;;;;;;-144.99;89.20;52480.72;5068656;28;19998;-74
2021/09/19 00:28:06;;;;;;;;;;;;;;;-144.99;89.05;52474.59;5068899;28;20081;-74
2021/09/19 00:30:34;;;;;;;;;;;;;;;-144.99;89.18;52456.25;5067241;28;19996;-75
2021/09/19 00:33:01;;;;;;;;;;;;;;;-144.99;89.05;52439.94;5068117;28;20012;-76
2021/09/19 00:35:28;;;;;;;;;;;;;;;-144.99;89.04;52444.03;5068182;28;20022;-75
2021/09/19 00:37:54;;;;;;;;;;;;;;;-144.99;89.21;52480.72;5069790;28;19978;-74
2021/09/19 00:40:21;;;;;;;;;;;;;;;-144.99;89.40;52452.16;5070379;28;19966;-75
2021/09/19 00:42:47;;;;;;;;;;;;;;;-144.99;89.36;52448.09;5071078;28;19979;-74
2021/09/19 00:45:16;;;;;;;;;;;;;;;-144.99;89.33;52431.78;5071655;28;20044;-75
2021/09/19 00:47:47;;;;;;;;;;;;;;;-144.99;89.48;52444.03;5071180;28;20094;-74
2021/09/19 00:50:14;;;;;;;;;;;;;;;-144.99;89.50;52403.25;5070849;28;20174;-73
2021/09/19 00:52:41;;;;;;;;;;;;;;;-144.99;89.51;52482.75;5068355;28;20065;-74
2021/09/19 00:55:08;;;;;;;;;;;;;;;-144.99;89.43;52484.78;5071066;28;20073;-74
2021/09/19 00:57:38;;;;;;;;;;;;;;;-144.99;89.57;52452.16;5071305;28;19979;-74
2021/09/19 01:00:06;;;;;;;;;;;;;;;-144.99;89.49;52456.25;5071125;28;20015;-74
2021/09/19 01:02:32;;;;;;;;;;;;;;;-144.99;89.28;52456.25;5071093;28;19975;-74
2021/09/19 01:05:00;;;;;;;;;;;;;;;-144.99;89.56;52460.31;5078386;28;20007;-73
2021/09/19 01:07:27;;;;;;;;;;;;;;;-144.99;89.44;52425.66;5074751;28;19976;-73
2021/09/19 01:09:54;;;;;;;;;;;;;;;-144.99;89.44;52435.88;5069763;28;19956;-75
2021/09/19 01:12:22;;;;;;;;;;;;;;;-144.99;89.54;52431.78;5070812;28;19994;-75
2021/09/19 01:14:49;;;;;;;;;;;;;;;-144.99;89.75;52476.63;5070997;28;20005;-76
2021/09/19 01:17:17;;;;;;;;;;;;;;;-144.99;89.90;52492.94;5076973;28;19974;-76
2021/09/19 01:19:45;;;;;;;;;;;;;;;-144.99;89.91;52456.25;5069587;28;19975;-74
2021/09/19 01:22:13;;;;;;;;;;;;;;;-144.99;89.96;52444.03;5069221;28;20269;-74
2021/09/19 01:24:41;;;;;;;;;;;;;;;-144.99;89.92;52446.06;5070055;28;20003;-74
2021/09/19 01:27:08;;;;;;;;;;;;;;;-144.99;90.05;52484.78;5071053;28;19979;-74
2021/09/19 01:29:35;;;;;;;;;;;;;;;-144.99;89.83;52501.09;5069322;28;19972;-73
2021/09/19 01:32:03;;;;;;;;;;;;;;;-144.99;90.00;52484.78;5069969;28;20097;-74
2021/09/19 01:34:29;;;;;;;;;;;;;;;-144.99;89.77;52460.31;5070247;28;19974;-74
2021/09/19 01:36:55;;;;;;;;;;;;;;;-144.99;90.06;52439.94;5069019;28;19979;-74
2021/09/19 01:39:22;;;;;;;;;;;;;;;-144.99;89.95;52462.34;5069565;28;20077;-74
2021/09/19 01:41:50;;;;;;;;;;;;;;;-144.99;89.88;52448.09;5070692;28;20039;-74
2021/09/19 01:44:17;;;;;;;;;;;;;;;-144.99;89.69;52458.28;5070629;28;19984;-74
2021/09/19 01:46:43;;;;;;;;;;;;;;;-144.99;89.38;52488.84;5068930;28;19976;-74
2021/09/19 01:49:09;;;;;;;;;;;;;;;-144.99;89.26;52472.56;5068707;28;19976;-74
2021/09/19 01:51:36;;;;;;;;;;;;;;;-144.99;89.49;52437.91;5063336;28;20034;-74
2021/09/19 01:54:02;;;;;;;;;;;;;;;-144.99;89.27;52444.03;5067040;28;19984;-73
2021/09/19 01:56:29;;;;;;;;;;;;;;;-144.99;89.51;52464.41;5070088;28;19991;-74
2021/09/19 01:58:57;;;;;;;;;;;;;;;-144.99;89.48;52427.72;5069344;28;20473;-74
2021/09/19 02:01:23;;;;;;;;;;;;;;;-144.99;89.76;52444.03;5081122;28;20078;-74
2021/09/19 02:03:51;;;;;;;;;;;;;;;-144.99;89.77;52456.25;5071686;28;20602;-74
2021/09/19 02:06:18;;;;;;;;;;;;;;;-144.99;89.83;52462.34;5062600;28;19992;-73
2021/09/19 02:08:44;;;;;;;;;;;;;;;-144.99;89.93;52478.66;5069461;28;20074;-74
2021/09/19 02:11:12;;;;;;;;;;;;;;;-144.99;90.20;52494.97;5069246;28;19992;-74
2021/09/19 02:13:40;;;;;;;;;;;;;;;-144.99;90.32;52482.75;5072195;28;19972;-74
2021/09/19 02:16:08;;;;;;;;;;;;;;;-144.99;90.18;52460.31;5079753;28;20041;-74
2021/09/19 02:18:34;;;;;;;;;;;;;;;-144.99;90.95;52476.63;5080186;28;19972;-73
2021/09/19 02:21:02;;;;;;;;;;;;;;;-144.99;91.09;52466.44;5070518;28;19998;-74
2021/09/19 02:23:28;;;;;;;;;;;;;;;-144.99;91.38;52464.41;5068113;28;20437;-74
2021/09/19 02:25:55;;;;;;;;;;;;;;;-144.99;91.47;52452.16;5068662;28;19995;-73
2021/09/19 02:28:21;;;;;;;;;;;;;;;-144.99;91.67;52448.09;5068567;28;20382;-73
2021/09/19 02:30:49;;;;;;;;;;;;;;;-144.99;91.96;52431.78;5067431;28;20022;-73
2021/09/19 02:33:17;;;;;;;;;;;;;;;-144.99;92.23;52488.84;5069022;28;19985;-73
2021/09/19 02:35:43;;;;;;;;;;;;;;;-144.99;92.15;52464.41;5068803;28;19979;-73
2021/09/19 02:38:10;;;;;;;;;;;;;;;-144.99;92.31;52460.31;5066145;28;19983;-74
2021/09/19 02:40:36;;;;;;;;;;;;;;;-144.99;92.53;52468.47;5067731;28;20009;-74
2021/09/19 02:43:03;;;;;;;;;;;;;;;-144.99;92.46;52480.72;5068473;28;20016;-73
2021/09/19 02:45:30;;;;;;;;;;;;;;;-144.99;92.47;52484.78;5068183;28;20002;-74
2021/09/19 02:47:56;;;;;;;;;;;;;;;-144.99;92.37;52464.41;5067587;28;20062;-73
2021/09/19 02:50:25;;;;;;;;;;;;;;;-144.99;92.18;52494.97;5066875;28;19986;-73
2021/09/19 02:52:52;;;;;;;;;;;;;;;-144.99;92.21;52444.03;5066353;28;20414;-73
2021/09/19 02:55:19;;;;;;;;;;;;;;;-144.99;92.15;52468.47;5068202;28;20011;-73
2021/09/19 02:57:46;;;;;;;;;;;;;;;-144.99;91.89;52484.78;5068197;28;20046;-73
2021/09/19 03:00:13;;;;;;;;;;;;;;;-144.99;91.95;52482.75;5066932;28;20430;-73
2021/09/19 03:02:40;;;;;;;;;;;;;;;-144.99;91.86;52450.13;5067856;28;19994;-74
2021/09/19 03:05:07;;;;;;;;;;;;;;;-144.99;91.79;52509.25;5067649;28;20470;-73
2021/09/19 03:07:35;;;;;;;;;;;;;;;-144.99;91.70;52492.94;5066294;28;19971;-73
2021/09/19 03:10:01;;;;;;;;;;;;;;;-144.99;91.87;52509.25;5067474;28;20082;-73
2021/09/19 03:12:28;;;;;;;;;;;;;;;-144.99;91.01;52439.94;5067430;28;19998;-73
2021/09/19 03:14:54;;;;;;;;;;;;;;;-144.99;90.46;52448.09;5081506;28;19979;-74
2021/09/19 03:17:20;;;;;;;;;;;;;;;-144.99;89.98;52494.97;5067435;28;19976;-73
2021/09/19 03:19:47;;;;;;;;;;;;;;;-144.99;89.48;52468.47;5066818;28;20065;-73
2021/09/19 03:22:13;;;;;;;;;;;;;;;-144.99;89.65;52472.56;5066330;28;20006;-72
2021/09/19 03:24:41;;;;;;;;;;;;;;;-144.99;89.69;52439.94;5067691;28;19974;-73
2021/09/19 03:27:07;;;;;;;;;;;;;;;-144.99;89.50;52468.47;5067906;28;19978;-74
2021/09/19 03:29:34;;;;;;;;;;;;;;;-144.99;89.27;52480.72;5066494;28;19982;-74
2021/09/19 03:32:00;;;;;;;;;;;;;;;-144.99;89.30;52452.16;5066873;28;19998;-73
2021/09/19 03:34:27;;;;;;;;;;;;;;;-144.99;89.69;52460.31;5067400;28;19979;-73
2021/09/19 03:36:53;;;;;;;;;;;;;;;-144.99;89.41;52462.34;5066546;28;19994;-74
2021/09/19 03:39:20;;;;;;;;;;;;;;;-144.99;89.49;52446.06;5066482;28;20082;-73
2021/09/19 03:41:47;;;;;;;;;;;;;;;-144.99;89.19;52456.25;5067893;28;19971;-73
2021/09/19 03:44:14;;;;;;;;;;;;;;;-144.99;88.86;52476.63;5067635;28;19988;-74
2021/09/19 03:46:40;;;;;;;;;;;;;;;-144.99;89.32;52466.44;5066466;28;20380;-74
2021/09/19 03:49:06;;;;;;;;;;;;;;;-144.99;89.60;52460.31;5066463;28;19990;-74
2021/09/19 03:51:33;;;;;;;;;;;;;;;-144.99;90.01;52486.81;5066615;28;20150;-74
2021/09/19 03:53:59;;;;;;;;;;;;;;;-144.99;90.07;52452.16;5067205;28;20033;-73
2021/09/19 03:56:26;;;;;;;;;;;;;;;-144.99;90.23;52472.56;5067405;28;20002;-74
2021/09/19 03:58:53;;;;;;;;;;;;;;;-144.99;90.33;52488.84;5066122;28;19979;-74
2021/09/19 04:01:20;;;;;;;;;;;;;;;-144.99;90.39;52458.28;5067303;28;19994;-74
2021/09/19 04:03:46;;;;;;;;;;;;;;;-144.99;90.46;52456.25;5067592;28;19985;-74
2021/09/19 04:06:13;;;;;;;;;;;;;;;-144.99;90.52;52505.16;5065443;28;19991;-73
2021/09/19 04:08:39;;;;;;;;;;;;;;;-144.99;90.18;52497.00;5065898;28;19980;-73
2021/09/19 04:11:05;;;;;;;;;;;;;;;-144.99;90.23;52492.94;5069597;28;20388;-74
2021/09/19 04:13:32;;;;;;;;;;;;;;;-144.99;90.46;52476.63;5072090;28;19946;-72
2021/09/19 04:16:00;;;;;;;;;;;;;;;-144.99;90.42;52472.56;5075122;28;20023;-73
2021/09/19 04:18:27;;;;;;;;;;;;;;;-144.99;90.67;52431.78;5073858;28;20360;-73
2021/09/19 04:20:53;;;;;;;;;;;;;;;-144.99;91.14;52431.78;5069866;28;20000;-73
2021/09/19 04:23:22;;;;;;;;;;;;;;;-144.99;90.86;52456.25;5070129;28;19983;-73
2021/09/19 04:25:48;;;;;;;;;;;;;;;-144.99;90.81;52476.63;5071417;28;20067;-74
2021/09/19 04:28:15;;;;;;;;;;;;;;;-144.99;90.62;52452.16;5071147;28;19987;-73
2021/09/19 04:30:41;;;;;;;;;;;;;;;-144.99;90.75;52484.78;5069620;28;19988;-73
2021/09/19 04:33:09;;;;;;;;;;;;;;;-144.99;90.69;52448.09;5070925;28;19982;-73
2021/09/19 04:35:36;;;;;;;;;;;;;;;-144.99;90.88;52464.41;5070971;28;19999;-74
2021/09/19 04:38:02;;;;;;;;;;;;;;;-144.99;90.76;52476.63;5069087;28;20004;-72
2021/09/19 04:40:29;;;;;;;;;;;;;;;-144.99;90.53;52448.09;5070332;28;19987;-74
2021/09/19 04:42:55;;;;;;;;;;;;;;;-144.99;90.40;52472.56;5070823;28;19980;-74
2021/09/19 04:45:21;;;;;;;;;;;;;;;-144.99;90.48;52439.94;5070909;28;19979;-74
2021/09/19 04:47:48;;;;;;;;;;;;;;;-144.99;90.33;52468.47;5070336;28;19994;-74
2021/09/19 04:50:16;;;;;;;;;;;;;;;-144.99;90.40;52460.31;5069845;28;20415;-73
2021/09/19 04:52:42;;;;;;;;;;;;;;;-144.99;90.33;52480.72;5067890;28;20034;-74
2021/09/19 04:55:09;;;;;;;;;;;;;;;-144.99;90.28;52448.09;5070097;28;19983;-74
2021/09/19 04:57:36;;;;;;;;;;;;;;;-144.99;90.25;52460.31;5057894;28;20508;-74
2021/09/19 05:00:05;;;;;;;;;;;;;;;-144.99;90.14;52462.34;5069623;28;19967;-73
2021/09/19 05:02:32;;;;;;;;;;;;;;;-144.99;90.20;52460.31;5070346;28;19995;-74
2021/09/19 05:04:58;;;;;;;;;;;;;;;-144.99;90.07;52464.41;5066095;28;19981;-75
2021/09/19 05:07:26;;;;;;;;;;;;;;;-144.99;89.84;52478.66;5068718;28;20002;-75
2021/09/19 05:09:53;;;;;;;;;;;;;;;-144.99;89.65;52472.56;5069387;28;19986;-75
2021/09/19 05:12:19;;;;;;;;;;;;;;;-144.99;89.91;52484.78;5071699;28;19972;-74
2021/09/19 05:14:46;;;;;;;;;;;;;;;-144.99;90.04;52468.47;5081347;28;19979;-74
2021/09/19 05:17:13;;;;;;;;;;;;;;;-144.99;89.83;52466.44;5074820;28;20407;-74
2021/09/19 05:19:39;;;;;;;;;;;;;;;-144.99;90.25;52468.47;5069367;28;19994;-75
2021/09/19 05:22:06;;;;;;;;;;;;;;;-144.99;90.17;52472.56;5068064;28;20376;-75
2021/09/19 05:24:33;;;;;;;;;;;;;;;-144.99;90.70;52501.09;5069825;28;19979;-75
2021/09/19 05:27:00;;;;;;;;;;;;;;;-144.99;90.68;52472.56;5069671;28;20005;-73
2021/09/19 05:29:26;;;;;;;;;;;;;;;-144.99;90.46;52448.09;5068797;28;19980;-75
2021/09/19 05:31:53;;;;;;;;;;;;;;;-144.99;90.65;52456.25;5069620;28;19988;-75
2021/09/19 05:34:19;;;;;;;;;;;;;;;-144.99;90.58;52501.09;5071319;28;20054;-75
2021/09/19 05:36:46;;;;;;;;;;;;;;;-144.99;90.75;52435.88;5080762;28;20098;-74
2021/09/19 05:39:12;;;;;;;;;;;;;;;-144.99;90.62;52476.63;5068661;28;19979;-74
2021/09/19 05:41:40;;;;;;;;;;;;;;;-144.99;91.10;52444.03;5077162;28;20036;-75
2021/09/19 05:44:06;;;;;;;;;;;;;;;-144.99;91.28;52474.59;5074840;28;19984;-74
2021/09/19 05:46:33;;;;;;;;;;;;;;;-144.99;91.29;52417.53;5069554;28;19994;-74
2021/09/19 05:49:00;;;;;;;;;;;;;;;-144.99;91.21;52458.28;5081414;28;20619;-72
2021/09/19 05:51:26;;;;;;;;;;;;;;;-144.99;90.93;52456.25;5065366;28;20552;-73
2021/09/19 05:53:53;;;;;;;;;;;;;;;-144.99;90.94;52488.84;5068676;28;19986;-74
2021/09/19 05:56:19;;;;;;;;;;;;;;;-144.99;90.62;52472.56;5069247;28;20090;-73
2021/09/19 05:58:47;;;;;;;;;;;;;;;-144.99;90.36;52488.84;5068840;28;19994;-73
2021/09/19 06:01:13;;;;;;;;;;;;;;;-144.99;90.72;52452.16;5078707;28;20467;-74
2021/09/19 06:03:41;;;;;;;;;;;;;;;-144.99;90.69;52435.88;5072596;28;19986;-73
2021/09/19 06:06:07;;;;;;;;;;;;;;;-144.99;90.43;52448.09;5063228;28;20002;-73
2021/09/19 06:08:33;;;;;;;;;;;;;;;-144.99;90.45;52488.84;5067453;28;19979;-72
2021/09/19 06:11:00;;;;;;;;;;;;;;;-144.99;90.33;52472.56;5068541;28;19995;-72
2021/09/19 06:13:26;;;;;;;;;;;;;;;-144.99;90.18;52505.16;5068774;28;20019;-73
2021/09/19 06:15:57;;;;;;;;;;;;;;;-144.99;89.81;52460.31;5068725;28;19986;-73
2021/09/19 06:18:23;;;;;;;;;;;;;;;-144.99;89.70;52433.81;5068394;28;20066;-76
2021/09/19 06:23:23;;;;;;;;;;;;;;;-144.99;89.50;52480.72;5034553;28;20005;-78
2021/09/19 06:25:51;;;;;;;;;;;;;;;-144.99;89.16;52454.22;5039292;28;20536;-78
2021/09/19 06:28:18;;;;;;;;;;;;;;;-144.99;89.10;52501.09;5048333;28;19984;-77
2021/09/19 06:30:44;;;;;;;;;;;;;;;-144.99;88.88;52441.97;5041304;28;20070;-77
2021/09/19 06:33:12;;;;;;;;;;;;;;;-144.99;89.11;52480.72;5044711;28;19992;-78
2021/09/19 06:35:40;;;;;;;;;;;;;;;-144.99;88.60;52439.94;5047720;28;19983;-80
2021/09/19 06:38:07;;;;;;;;;;;;;;;-144.99;88.18;52464.41;5045444;28;19984;-76
2021/09/19 06:40:33;;;;;;;;;;;;;;;-144.99;88.48;52456.25;5046279;28;19990;-73
2021/09/19 06:42:59;;;;;;;;;;;;;;;-144.99;88.57;52456.25;5046351;28;20031;-77
2021/09/19 06:45:26;;;;;;;;;;;;;;;-144.99;88.03;52435.88;5046935;28;19981;-73
2021/09/19 06:47:52;;;;;;;;;;;;;;;-144.99;88.07;52456.25;5045784;28;20250;-73
2021/09/19 06:50:20;;;;;;;;;;;;;;;-144.99;88.19;52448.09;5045830;28;19984;-74
2021/09/19 06:52:46;;;;;;;;;;;;;;;-144.99;88.07;52433.81;5044798;28;20006;-73
2021/09/19 06:55:13;;;;;;;;;;;;;;;-144.99;87.63;52494.97;5045887;28;19981;-72
2021/09/19 06:57:39;;;;;;;;;;;;;;;-144.99;87.42;52419.56;5046543;28;19983;-71
2021/09/19 07:00:06;;;;;;;;;;;;;;;-144.99;86.29;52450.13;5046149;28;20386;-75
2021/09/19 07:02:33;;;;;;;;;;;;;;;-144.99;86.07;52448.09;5046244;28;20001;-71
2021/09/19 07:04:59;;;;;;;;;;;;;;;-144.99;87.33;52429.75;5041843;28;20159;-72
2021/09/19 07:07:27;;;;;;;;;;;;;;;-144.99;88.07;52480.72;5045522;28;19998;-74
2021/09/19 07:09:54;;;;;;;;;;;;;;;-144.99;88.95;52468.47;5045635;28;20033;-74
2021/09/19 07:12:20;;;;;;;;;;;;;;;-144.99;88.74;52452.16;5046424;28;20023;-73
2021/09/19 07:14:46;;;;;;;;;;;;;;;-144.99;87.71;52448.09;5046970;28;19987;-74
2021/09/19 07:17:14;;;;;;;;;;;;;;;-144.99;87.76;52460.31;5046275;28;19977;-73
2021/09/19 07:19:40;;;;;;;;;;;;;;;-144.99;88.33;52415.47;5045686;28;20069;-74
2021/09/19 07:22:06;;;;;;;;;;;;;;;-144.99;87.95;52448.09;5045005;28;20379;-73
2021/09/19 07:24:35;;;;;;;;;;;;;;;-144.99;87.11;52444.03;5046728;28;19985;-72
2021/09/19 07:27:03;;;;;;;;;;;;;;;-144.99;86.37;52458.28;5046590;28;20043;-72
2021/09/19 07:29:30;;;;;;;;;;;;;;;-144.99;85.80;52444.03;5045240;28;19985;-72
2021/09/19 07:31:57;;;;;;;;;;;;;;;-144.99;85.65;52466.44;5045436;28;20004;-73
2021/09/19 07:34:23;;;;;;;;;;;;;;;-144.99;85.47;52444.03;5042749;28;20000;-72
2021/09/19 07:36:50;;;;;;;;;;;;;;;-144.99;84.45;52437.91;5045078;28;20352;-72
2021/09/19 07:39:17;;;;;;;;;;;;;;;-144.99;83.50;52435.88;5045103;28;19986;-73
2021/09/19 07:41:45;;;;;;;;;;;;;;;-144.99;80.57;52419.56;5046202;28;19994;-73
2021/09/19 07:44:11;;;;;;;;;;;;;;;-144.99;81.12;52427.72;5046097;28;20438;-71
2021/09/19 07:46:38;;;;;;;;;;;;;;;-144.99;80.66;52415.47;5050747;28;20087;-73
2021/09/19 07:49:04;;;;;;;;;;;;;;;-144.99;80.93;52452.16;5050550;28;20398;-73
2021/09/19 07:51:31;;;;;;;;;;;;;;;-144.99;81.42;52431.78;5050284;28;20391;-73
2021/09/19 07:53:58;;;;;;;;;;;;;;;-144.99;80.89;52458.28;5049835;28;20058;-71
2021/09/19 07:56:24;;;;;;;;;;;;;;;-144.99;80.64;52444.03;5050106;28;19975;-73
2021/09/19 07:58:52;;;;;;;;;;;;;;;-144.99;79.90;52431.78;5049303;28;20372;-72
2021/09/19 08:01:18;;;;;;;;;;;;;;;-144.99;79.55;52444.03;5049755;28;20025;-75
2021/09/19 08:03:45;;;;;;;;;;;;;;;-144.99;79.50;52448.09;5048999;28;20591;-77
2021/09/19 08:06:11;;;;;;;;;;;;;;;-144.99;79.33;52454.22;5044183;28;20353;-75
2021/09/19 08:08:37;;;;;;;;;;;;;;;-144.99;78.73;52415.47;5046520;28;20389;-76
2021/09/19 08:11:04;;;;;;;;;;;;;;;-144.99;78.36;52439.94;5049065;28;20078;-76
2021/09/19 08:13:30;;;;;;;;;;;;;;;-144.99;78.25;52391.03;5049073;28;20074;-75
2021/09/19 08:15:58;;;;;;;;;;;;;;;-144.99;78.15;52413.44;5050017;28;19980;-75
2021/09/19 08:18:25;;;;;;;;;;;;;;;-144.99;76.69;52439.94;5049576;28;20077;-75
2021/09/19 08:20:51;;;;;;;;;;;;;;;-144.99;76.57;52423.63;5048518;28;20165;-75
2021/09/19 08:23:17;;;;;;;;;;;;;;;-144.99;76.15;52407.31;5048322;28;20009;-76
2021/09/19 08:25:44;;;;;;;;;;;;;;;-144.99;76.25;52395.09;5050114;28;20435;-76
2021/09/19 08:28:10;;;;;;;;;;;;;;;-144.99;75.69;52399.19;5049085;28;19999;-76
2021/09/19 08:30:37;;;;;;;;;;;;;;;-144.99;74.55;52425.66;5048731;28;20071;-76
2021/09/19 08:33:05;;;;;;;;;;;;;;;-144.99;74.76;52431.78;5049467;28;19992;-76
2021/09/19 08:35:31;;;;;;;;;;;;;;;-144.99;73.98;52421.59;5049406;28;20024;-76
2021/09/19 08:37:58;;;;;;;;;;;;;;;-144.99;74.03;52427.72;5046959;28;19990;-74
2021/09/19 08:40:25;;;;;;;;;;;;;;;-144.99;73.89;52413.44;5048476;28;19979;-77
2021/09/19 08:42:54;;;;;;;;;;;;;;;-144.99;73.53;52397.13;5049504;28;20005;-75
2021/09/19 08:45:21;;;;;;;;;;;;;;;-144.99;73.32;52413.44;5049688;28;19980;-76
2021/09/19 08:47:49;;;;;;;;;;;;;;;-144.99;72.73;52437.91;5048583;28;20480;-75
2021/09/19 08:50:16;;;;;;;;;;;;;;;-144.99;72.09;52439.94;5048422;28;20077;-76
2021/09/19 08:52:43;;;;;;;;;;;;;;;-144.99;72.83;52431.78;5047732;28;20098;-77
2021/09/19 08:55:10;;;;;;;;;;;;;;;-144.99;72.60;52403.25;5049259;28;20041;-78
2021/09/19 08:57:37;;;;;;;;;;;;;;;-144.99;71.62;52391.03;5048665;28;20006;-76
2021/09/19 09:00:04;;;;;;;;;;;;;;;-144.99;71.65;52423.63;5048148;28;20001;-73
2021/09/19 09:02:44;;;;;;;;;;;;;;;-144.99;72.06;52427.72;5048579;28;19995;-76
2021/09/19 09:05:14;;;;;;;;;;;;;;;-144.99;70.89;52397.13;5048700;28;20015;-77
2021/09/19 09:07:44;;;;;;;;;;;;;;;-144.99;71.36;52395.09;5037537;28;19987;-74
2021/09/19 09:10:11;;;;;;;;;;;;;;;-144.99;70.92;52386.94;4696734;28;10001024;-76
2021/09/19 09:12:37;;;;;;;;;;;;;;;-144.99;70.95;52386.94;5045937;28;20188;-77
2021/09/19 09:15:05;;;;;;;;;;;;;;;-144.99;70.61;52393.06;5046144;28;20348;-76
2021/09/19 09:17:31;;;;;;;;;;;;;;;-144.99;70.76;52413.44;5044879;28;19996;-76
2021/09/19 09:19:59;;;;;;;;;;;;;;;-144.99;70.32;52374.72;5044257;28;19980;-75
2021/09/19 09:22:27;;;;;;;;;;;;;;;-144.99;70.51;52362.50;5043379;28;20498;-74
2021/09/19 09:25:07;;;;;;;;;;;;;;;-144.99;69.24;52397.13;5045273;28;19979;-75
2021/09/19 09:27:37;;;;;;;;;;;;;;;-144.99;68.86;52397.13;5045129;28;20382;-72
2021/09/19 09:30:08;;;;;;;;;;;;;;;-144.99;68.97;52384.91;5042508;28;19975;-77
2021/09/19 09:32:48;;;;;;;;;;;;;;;-144.99;67.87;52391.03;5045908;28;19988;-75
2021/09/19 09:35:15;;;;;;;;;;;;;;;-144.99;68.11;52382.88;4690272;28;9999691;-76
2021/09/19 09:37:42;;;;;;;;;;;;;;;-144.99;68.04;52395.09;5043781;28;19980;-77
2021/09/19 09:40:17;;;;;;;;;;;;;;;-144.99;67.73;52362.50;5044126;28;19987;-76
2021/09/19 09:42:58;;;;;;;;;;;;;;;-144.99;67.57;52431.78;5035482;28;20002;-73
2021/09/19 09:45:25;;;;;;;;;;;;;;;-144.99;66.77;52362.50;5045400;28;20002;-76
2021/09/19 09:47:51;;;;;;;;;;;;;;;-144.99;66.66;52376.75;5045055;28;19988;-77
2021/09/19 09:50:24;;;;;;;;;;;;;;;-144.99;66.32;52374.72;5043445;28;19971;-77
2021/09/19 09:52:52;;;;;;;;;;;;;;;-144.99;65.81;52399.19;5048467;28;20378;-77
2021/09/19 09:55:21;;;;;;;;;;;;;;;-144.99;65.23;52417.53;5048607;28;20183;-75
2021/09/19 09:58:02;;;;;;;;;;;;;;;-144.99;65.79;52401.22;5048231;28;19989;-77
2021/09/19 10:00:29;;;;;;;;;;;;;;;-144.99;65.59;52441.97;5047227;28;20077;-75
2021/09/19 10:02:55;;;;;;;;;;;;;;;-144.99;65.64;52395.09;5047353;28;19960;-76
2021/09/19 10:05:22;;;;;;;;;;;;;;;-144.99;65.71;52360.44;5043952;28;19938;-76
2021/09/19 10:07:49;;;;;;;;;;;;;;;-144.99;65.20;52425.66;5043966;28;20461;-76
2021/09/19 10:10:16;;;;;;;;;;;;;;;-144.99;64.29;52378.78;5046540;28;19975;-73
2021/09/19 10:12:45;;;;;;;;;;;;;;;-144.99;64.13;52395.09;5049110;28;20384;-76
2021/09/19 10:15:11;;;;;;;;;;;;;;;-144.99;64.01;52372.69;5048043;28;20087;-76
2021/09/19 10:17:38;;;;;;;;;;;;;;;-144.99;63.22;52382.88;5044425;28;20381;-77
2021/09/19 10:20:05;;;;;;;;;;;;;;;-144.99;62.37;52399.19;5046486;28;19982;-76
2021/09/19 10:22:32;;;;;;;;;;;;;;;-144.99;62.17;52378.78;5043294;28;19991;-74
2021/09/19 10:24:59;;;;;;;;;;;;;;;-144.99;61.11;52374.72;5047118;28;19979;-74
2021/09/19 10:27:30;;;;;;;;;;;;;;;-144.99;61.61;52423.63;5045071;28;20416;-76
2021/09/19 10:29:59;;;;;;;;;;;;;;;-144.99;60.98;52374.72;5046882;28;19975;-78
2021/09/19 10:32:33;;;;;;;;;;;;;;;-144.99;60.51;52397.13;5046656;28;20094;-76
2021/09/19 10:34:59;;;;;;;;;;;;;;;-144.99;60.12;52433.81;5046933;28;19977;-76
2021/09/19 10:37:47;;;;;;;;;;;;;;;-144.99;60.50;52368.59;5043904;28;20002;-76
2021/09/19 10:40:14;;;;;;;;;;;;;;;-144.99;60.96;52372.69;5046152;28;19975;-75
2021/09/19 10:42:49;;;;;;;;;;;;;;;-144.99;60.00;52368.59;5044280;28;20766;-74
2021/09/19 10:45:17;;;;;;;;;;;;;;;-144.99;60.00;52362.50;5045786;28;20039;-76
2021/09/19 10:47:45;;;;;;;;;;;;;;;-144.99;60.53;52395.09;5045806;28;20010;-76
2021/09/19 10:50:22;;;;;;;;;;;;;;;-144.99;59.82;52362.50;5046932;28;20059;-76
2021/09/19 10:52:50;;;;;;;;;;;;;;;-144.99;58.73;52370.63;5043557;28;20035;-74
2021/09/19 10:55:20;;;;;;;;;;;;;;;-144.99;57.89;52407.31;5046829;28;20074;-76
2021/09/19 10:57:53;;;;;;;;;;;;;;;-144.99;58.84;52374.72;5046695;28;19987;-76
2021/09/19 11:00:22;;;;;;;;;;;;;;;-144.99;58.38;52358.41;5046062;28;20421;-76
2021/09/19 11:03:05;;;;;;;;;;;;;;;-144.99;58.08;52370.63;5045972;28;20002;-76
2021/09/19 11:05:32;;;;;;;;;;;;;;;-144.99;57.62;52391.03;5039377;28;20373;-76
2021/09/19 11:08:16;;;;;;;;;;;;;;;-144.99;58.29;52354.34;5043843;28;19990;-76
2021/09/19 11:11:09;;;;;;;;;;;;;;;-144.99;57.42;52388.97;5044948;28;20524;-76
2021/09/19 11:13:42;;;;;;;;;;;;;;;-144.99;57.26;52370.63;4987810;28;20094;-76
2021/09/19 11:16:17;;;;;;;;;;;;;;;-144.99;57.05;52399.19;5046299;28;19987;-76
2021/09/19 11:18:44;;;;;;;;;;;;;;;-144.99;56.27;52374.72;5045055;28;19976;-76
2021/09/19 11:21:14;;;;;;;;;;;;;;;-144.99;56.96;52358.41;5044772;28;20075;-75
2021/09/19 11:23:45;;;;;;;;;;;;;;;-144.99;57.28;52399.19;5051150;28;19983;-77
2021/09/19 11:26:11;;;;;;;;;;;;;;;-144.99;57.08;52352.28;5053559;28;19984;-76
2021/09/19 11:28:38;;;;;;;;;;;;;;;-144.99;57.25;52356.38;5045416;28;19995;-76
2021/09/19 11:31:05;;;;;;;;;;;;;;;-144.99;57.85;52354.34;5044461;28;20019;-73
2021/09/19 11:33:33;;;;;;;;;;;;;;;-144.99;57.26;52352.28;5044513;28;19980;-76
2021/09/19 11:36:00;;;;;;;;;;;;;;;-144.99;57.00;52362.50;5045253;28;19980;-73
2021/09/19 11:38:26;;;;;;;;;;;;;;;-144.99;55.67;52362.50;5043177;28;19986;-76
2021/09/19 11:41:01;;;;;;;;;;;;;;;-144.99;55.94;52342.09;5045398;28;20431;-77
2021/09/19 11:43:27;;;;;;;;;;;;;;;-144.99;55.16;52372.69;5046290;28;19975;-76
2021/09/19 11:45:53;;;;;;;;;;;;;;;-144.99;55.46;52372.69;5045957;28;20079;-77
2021/09/19 11:48:20;;;;;;;;;;;;;;;-144.99;55.37;52354.34;5045717;28;20070;-75
2021/09/19 11:50:50;;;;;;;;;;;;;;;-144.99;55.40;52338.03;5047029;28;20003;-76
2021/09/19 11:53:17;;;;;;;;;;;;;;;-144.99;54.20;52311.53;5056997;28;19997;-75
2021/09/19 11:55:44;;;;;;;;;;;;;;;-144.99;54.74;52378.78;5047468;28;19979;-75
2021/09/19 11:58:16;;;;;;;;;;;;;;;-144.99;54.81;52378.78;5048672;28;20239;-78
2021/09/19 12:00:43;;;;;;;;;;;;;;;-144.99;55.66;52323.75;5046217;28;19991;-77
2021/09/19 12:03:09;;;;;;;;;;;;;;;-144.99;55.50;52338.03;5046917;28;20035;-76
2021/09/19 12:05:36;;;;;;;;;;;;;;;-144.99;55.48;52329.88;5046507;28;20341;-77
2021/09/19 12:08:04;;;;;;;;;;;;;;;-144.99;55.91;52350.25;5043907;28;20484;-75
2021/09/19 12:10:30;;;;;;;;;;;;;;;-144.99;56.59;52348.22;5045109;28;20393;-74
2021/09/19 12:12:57;;;;;;;;;;;;;;;-144.99;55.68;52338.03;5046694;28;20446;-78
2021/09/19 12:15:24;;;;;;;;;;;;;;;-144.99;55.48;52309.50;5046930;28;20438;-77
2021/09/19 12:18:02;;;;;;;;;;;;;;;-144.99;54.62;52358.41;5045663;28;19984;-77
2021/09/19 12:20:29;;;;;;;;;;;;;;;-144.99;55.10;52329.88;5045038;28;19991;-79
2021/09/19 12:23:13;;;;;;;;;;;;;;;-144.99;55.35;52307.47;5063074;22;20470;-72
2021/09/19 12:25:46;;;;;;;;;;;;;;;-144.99;54.78;52303.38;5061012;28;19972;-74
2021/09/19 12:28:12;;;;;;;;;;;;;;;-144.99;54.72;52309.50;5064645;28;20377;-73
2021/09/19 12:30:41;;;;;;;;;;;;;;;-144.99;53.83;52264.66;5061480;28;20020;-73